Time;durP1;ratioP1;P1;durP2;ratioP2;P2;SDS_P1;SDS_P2;PMS_P1;PMS_P2;Temp;Humidity;BMP_temperature;BMP_pressure;BME280_temperature;BME280_humidity;BME280_pressure;Samples;Min_cycle;Max_cycle;Signal;HPM_P1;HPM_P2
2023/09/01 00:01:26;;;;;;;14.85;8.35;;;;;;;;;;6127580;29;20051;-59
2023/09/01 00:04:27;;;;;;;16.45;10.15;;;;;;;;;;6127720;29;20137;-59
2023/09/01 00:07:28;;;;;;;19.27;9.07;;;;;;;;;;6126768;29;20043;-60
2023/09/01 00:10:28;;;;;;;13.98;9.27;;;;;;;;;;6126348;29;20039;-59
2023/09/01 00:13:29;;;;;;;16.73;9.75;;;;;;;;;;6127760;29;20043;-60
2023/09/01 00:16:30;;;;;;;18.50;9.75;;;;;;;;;;6135623;29;20077;-60
2023/09/01 00:19:30;;;;;;;16.55;10.32;;;;;;;;;;6120789;29;20082;-60
2023/09/01 00:22:31;;;;;;;14.93;8.18;;;;;;;;;;6124410;29;20142;-60
2023/09/01 00:25:31;;;;;;;13.93;7.68;;;;;;;;;;6113881;29;20419;-58
2023/09/01 00:28:32;;;;;;;17.17;8.35;;;;;;;;;;6126323;29;20079;-59
2023/09/01 00:31:33;;;;;;;15.95;7.72;;;;;;;;;;6118483;29;20055;-60
2023/09/01 00:34:34;;;;;;;12.23;7.45;;;;;;;;;;6129066;28;20051;-59
2023/09/01 00:37:35;;;;;;;13.27;7.13;;;;;;;;;;6130461;29;20055;-59
2023/09/01 00:40:36;;;;;;;13.88;7.57;;;;;;;;;;6129656;29;20047;-60
2023/09/01 00:43:36;;;;;;;14.25;7.95;;;;;;;;;;6134421;29;20399;-59
2023/09/01 00:46:39;;;;;;;13.05;8.07;;;;;;;;;;6122144;29;20499;-60
2023/09/01 00:49:41;;;;;;;13.65;7.43;;;;;;;;;;6125999;29;20144;-60
2023/09/01 00:52:41;;;;;;;12.77;7.47;;;;;;;;;;6126504;29;20054;-58
2023/09/01 00:55:42;;;;;;;15.00;8.05;;;;;;;;;;6137536;29;20052;-58
2023/09/01 00:58:43;;;;;;;12.98;7.40;;;;;;;;;;6111319;29;20055;-57
2023/09/01 01:01:44;;;;;;;13.15;6.82;;;;;;;;;;6116939;29;20047;-59
2023/09/01 01:04:45;;;;;;;10.73;6.20;;;;;;;;;;6127217;29;20048;-59
2023/09/01 01:07:58;;;;;;;13.93;7.22;;;;;;;;;;6123070;29;20047;-59
2023/09/01 01:11:34;;;;;;;13.30;6.85;;;;;;;;;;6112769;29;20526;-59
2023/09/01 01:14:40;;;;;;;12.35;6.38;;;;;;;;;;6122443;29;20047;-59
2023/09/01 01:17:45;;;;;;;14.05;6.50;;;;;;;;;;6125753;29;20049;-58
2023/09/01 01:20:52;;;;;;;13.57;7.70;;;;;;;;;;6116584;29;20536;-59
2023/09/01 01:23:53;;;;;;;12.18;6.65;;;;;;;;;;6125909;29;20418;-59
2023/09/01 01:26:53;;;;;;;17.48;6.38;;;;;;;;;;6117125;29;20039;-60
2023/09/01 01:29:54;;;;;;;10.38;5.95;;;;;;;;;;6117526;29;22413;-58
2023/09/01 01:32:54;;;;;;;11.07;5.68;;;;;;;;;;6123166;29;20110;-59
2023/09/01 01:36:16;;;;;;;12.02;5.63;;;;;;;;;;6118591;29;20066;-59
2023/09/01 01:39:24;;;;;;;15.57;6.10;;;;;;;;;;6126375;29;20062;-56
2023/09/01 01:42:28;;;;;;;12.77;6.40;;;;;;;;;;6124471;29;20057;-57
2023/09/01 01:45:30;;;;;;;11.23;6.15;;;;;;;;;;6118081;29;20054;-59
2023/09/01 01:48:36;;;;;;;15.80;5.93;;;;;;;;;;6122752;29;20446;-59
2023/09/01 01:51:36;;;;;;;11.82;5.55;;;;;;;;;;6117562;29;20070;-59
2023/09/01 01:54:37;;;;;;;13.15;6.53;;;;;;;;;;6122927;29;20044;-59
2023/09/01 01:57:38;;;;;;;13.75;5.47;;;;;;;;;;6123260;29;20384;-60
2023/09/01 02:00:38;;;;;;;9.38;6.00;;;;;;;;;;6126367;29;20047;-59
2023/09/01 02:03:39;;;;;;;11.43;5.78;;;;;;;;;;6124374;29;20040;-59
2023/09/01 02:06:39;;;;;;;9.38;5.00;;;;;;;;;;6123318;29;20044;-60
2023/09/01 02:09:40;;;;;;;12.88;5.22;;;;;;;;;;6124440;29;20051;-60
2023/09/01 02:12:41;;;;;;;11.90;5.47;;;;;;;;;;6126678;29;20502;-59
2023/09/01 02:15:50;;;;;;;10.13;5.18;;;;;;;;;;6126782;29;20047;-59
2023/09/01 02:18:51;;;;;;;9.65;5.22;;;;;;;;;;6127923;29;20502;-58
2023/09/01 02:21:51;;;;;;;9.13;5.03;;;;;;;;;;6131108;29;20059;-59
2023/09/01 02:24:52;;;;;;;9.88;5.03;;;;;;;;;;6130317;29;20055;-59
2023/09/01 02:27:52;;;;;;;10.23;4.70;;;;;;;;;;6132157;29;20040;-60
2023/09/01 02:30:53;;;;;;;12.00;5.20;;;;;;;;;;6119976;29;20055;-58
2023/09/01 02:33:53;;;;;;;11.75;5.20;;;;;;;;;;6130358;29;20043;-59
2023/09/01 02:36:54;;;;;;;10.05;4.93;;;;;;;;;;6122103;29;20063;-59
2023/09/01 02:39:55;;;;;;;10.55;4.55;;;;;;;;;;6122764;29;20411;-58
2023/09/01 02:42:55;;;;;;;8.73;4.75;;;;;;;;;;6133086;29;20086;-59
2023/09/01 02:45:56;;;;;;;9.30;5.10;;;;;;;;;;6121983;29;20392;-58
2023/09/01 02:48:57;;;;;;;11.25;4.90;;;;;;;;;;6128981;29;20851;-60
2023/09/01 02:51:57;;;;;;;10.50;5.00;;;;;;;;;;6128178;29;20074;-59
2023/09/01 02:54:58;;;;;;;9.30;5.00;;;;;;;;;;6115153;29;20040;-60
2023/09/01 02:57:59;;;;;;;10.48;4.72;;;;;;;;;;6127536;29;20704;-59
2023/09/01 03:01:10;;;;;;;9.55;4.55;;;;;;;;;;6121485;29;20126;-59
2023/09/01 03:04:11;;;;;;;8.15;4.38;;;;;;;;;;6124983;29;20043;-59
2023/09/01 03:07:11;;;;;;;11.30;4.70;;;;;;;;;;6109183;29;20511;-59
2023/09/01 03:10:12;;;;;;;10.90;4.63;;;;;;;;;;6119815;29;20113;-59
2023/09/01 03:13:13;;;;;;;11.98;4.95;;;;;;;;;;6127931;29;20057;-58
2023/09/01 03:16:13;;;;;;;10.38;4.70;;;;;;;;;;6123866;29;20759;-59
2023/09/01 03:19:14;;;;;;;10.52;4.75;;;;;;;;;;6127682;29;20484;-58
2023/09/01 03:22:14;;;;;;;8.00;4.35;;;;;;;;;;6124558;29;20051;-57
2023/09/01 03:25:16;;;;;;;8.75;4.50;;;;;;;;;;6113494;29;20491;-59
2023/09/01 03:28:17;;;;;;;9.05;4.15;;;;;;;;;;6125819;28;20052;-56
2023/09/01 03:31:18;;;;;;;10.75;4.63;;;;;;;;;;6119766;28;20518;-60
2023/09/01 03:34:18;;;;;;;8.10;3.95;;;;;;;;;;6135788;28;20055;-60
2023/09/01 03:37:19;;;;;;;10.70;4.47;;;;;;;;;;6139944;28;20182;-60
2023/09/01 03:40:19;;;;;;;9.85;4.13;;;;;;;;;;6136387;29;20109;-59
2023/09/01 03:43:20;;;;;;;6.85;4.03;;;;;;;;;;6139534;29;20098;-58
2023/09/01 03:46:20;;;;;;;8.20;4.03;;;;;;;;;;6139944;29;20051;-59
2023/09/01 03:49:21;;;;;;;10.25;4.13;;;;;;;;;;6134639;29;20043;-56
2023/09/01 03:52:22;;;;;;;11.85;4.32;;;;;;;;;;6133858;28;20121;-58
2023/09/01 03:55:23;;;;;;;8.38;4.45;;;;;;;;;;6122273;29;20062;-60
2023/09/01 03:58:23;;;;;;;8.73;4.30;;;;;;;;;;6122292;29;20418;-60
2023/09/01 04:01:24;;;;;;;13.45;5.18;;;;;;;;;;6130285;29;20074;-60
2023/09/01 04:04:24;;;;;;;9.98;4.95;;;;;;;;;;6128714;29;20475;-59
2023/09/01 04:07:25;;;;;;;9.38;5.18;;;;;;;;;;6118680;29;20514;-58
2023/09/01 04:10:25;;;;;;;11.27;5.20;;;;;;;;;;6113835;29;20055;-59
2023/09/01 04:13:26;;;;;;;10.38;5.18;;;;;;;;;;6126653;29;20054;-59
2023/09/01 04:16:27;;;;;;;12.57;5.13;;;;;;;;;;6121006;29;20487;-58
2023/09/01 04:19:28;;;;;;;11.33;5.67;;;;;;;;;;6123492;29;20483;-59
2023/09/01 04:22:28;;;;;;;10.00;5.07;;;;;;;;;;6121396;29;20047;-57
2023/09/01 04:25:29;;;;;;;11.32;5.20;;;;;;;;;;6127493;29;20125;-58
2023/09/01 04:28:30;;;;;;;9.80;4.50;;;;;;;;;;6127107;29;20058;-59
2023/09/01 04:31:32;;;;;;;12.20;5.03;;;;;;;;;;6126992;29;20082;-58
2023/09/01 04:34:32;;;;;;;10.85;4.68;;;;;;;;;;6122058;29;20473;-59
2023/09/01 04:37:33;;;;;;;10.40;4.95;;;;;;;;;;6122780;29;20043;-59
2023/09/01 04:40:33;;;;;;;11.65;5.13;;;;;;;;;;6121741;28;20098;-58
2023/09/01 04:43:34;;;;;;;10.38;5.15;;;;;;;;;;6126174;29;20047;-60
2023/09/01 04:46:34;;;;;;;9.70;4.78;;;;;;;;;;6117472;29;20059;-59
2023/09/01 04:49:35;;;;;;;10.25;5.63;;;;;;;;;;6122331;29;20036;-59
2023/09/01 04:52:39;;;;;;;9.88;4.88;;;;;;;;;;6121395;29;20048;-60
2023/09/01 04:55:40;;;;;;;13.02;5.28;;;;;;;;;;6117214;29;20043;-60
2023/09/01 04:58:40;;;;;;;9.00;4.70;;;;;;;;;;6124243;29;20479;-60
2023/09/01 05:01:41;;;;;;;10.70;4.80;;;;;;;;;;6117414;29;20486;-59
2023/09/01 05:04:41;;;;;;;9.85;4.47;;;;;;;;;;6117051;29;20051;-60
2023/09/01 05:07:42;;;;;;;8.40;4.63;;;;;;;;;;6124403;29;20054;-61
2023/09/01 05:10:43;;;;;;;8.05;4.10;;;;;;;;;;6123726;29;20051;-59
2023/09/01 05:13:44;;;;;;;8.85;4.30;;;;;;;;;;6122715;29;20098;-60
2023/09/01 05:16:44;;;;;;;8.18;3.90;;;;;;;;;;6122928;29;20055;-57
2023/09/01 05:19:45;;;;;;;8.75;3.97;;;;;;;;;;6123064;29;20134;-59
2023/09/01 05:22:45;;;;;;;8.45;3.80;;;;;;;;;;6116896;29;20063;-58
2023/09/01 05:25:52;;;;;;;7.20;3.88;;;;;;;;;;6115660;29;20106;-60
2023/09/01 05:28:52;;;;;;;8.70;3.90;;;;;;;;;;6122447;29;20035;-56
2023/09/01 05:31:53;;;;;;;8.00;4.30;;;;;;;;;;6127630;29;20098;-61
2023/09/01 05:34:54;;;;;;;9.18;3.90;;;;;;;;;;6119593;29;20056;-60
2023/09/01 05:37:54;;;;;;;8.00;3.65;;;;;;;;;;6115905;29;20051;-56
2023/09/01 05:40:59;;;;;;;8.80;3.78;;;;;;;;;;6110611;29;20142;-60
2023/09/01 05:44:00;;;;;;;9.70;3.90;;;;;;;;;;6122067;29;20051;-60
2023/09/01 05:47:00;;;;;;;8.50;3.42;;;;;;;;;;6111935;29;20050;-60
2023/09/01 05:50:03;;;;;;;6.35;3.40;;;;;;;;;;6118535;29;20052;-59
2023/09/01 05:53:04;;;;;;;11.65;3.67;;;;;;;;;;6122044;29;20380;-58
2023/09/01 05:56:05;;;;;;;7.93;3.85;;;;;;;;;;6122255;29;20526;-60
2023/09/01 05:59:05;;;;;;;11.70;4.13;;;;;;;;;;6126465;29;20063;-60
2023/09/01 06:02:06;;;;;;;9.45;3.97;;;;;;;;;;6117780;29;20051;-60
2023/09/01 06:05:07;;;;;;;9.43;3.65;;;;;;;;;;6123599;29;20054;-60
2023/09/01 06:08:07;;;;;;;9.27;4.00;;;;;;;;;;6124159;29;20456;-60
2023/09/01 06:11:09;;;;;;;11.05;4.07;;;;;;;;;;6124415;29;20054;-60
2023/09/01 06:14:10;;;;;;;11.35;4.75;;;;;;;;;;6124706;29;20043;-59
2023/09/01 06:17:10;;;;;;;9.55;4.50;;;;;;;;;;6117697;29;20048;-60
2023/09/01 06:20:11;;;;;;;9.10;4.53;;;;;;;;;;6124734;29;20048;-60
2023/09/01 06:23:12;;;;;;;11.18;3.92;;;;;;;;;;6111986;29;20406;-60
2023/09/01 06:26:19;;;;;;;12.73;3.78;;;;;;;;;;6109987;29;20091;-60
2023/09/01 06:29:20;;;;;;;7.57;3.80;;;;;;;;;;6123083;29;20542;-60
2023/09/01 06:32:21;;;;;;;11.88;4.20;;;;;;;;;;6120984;29;20050;-60
2023/09/01 06:35:21;;;;;;;9.18;3.65;;;;;;;;;;6111099;29;20107;-61
2023/09/01 06:38:22;;;;;;;8.63;3.20;;;;;;;;;;6118551;29;20462;-61
2023/09/01 06:41:22;;;;;;;7.07;3.25;;;;;;;;;;6117588;29;20077;-59
2023/09/01 06:44:23;;;;;;;9.48;3.63;;;;;;;;;;6119932;29;20146;-61
2023/09/01 06:47:24;;;;;;;6.75;3.28;;;;;;;;;;6118521;29;20620;-60
2023/09/01 06:50:24;;;;;;;7.13;3.20;;;;;;;;;;6118575;29;20500;-60
2023/09/01 06:53:25;;;;;;;8.13;4.00;;;;;;;;;;6117983;29;20095;-61
2023/09/01 06:56:26;;;;;;;10.02;3.63;;;;;;;;;;6108339;29;20055;-60
2023/09/01 06:59:27;;;;;;;8.75;3.88;;;;;;;;;;6133975;29;20043;-60
2023/09/01 07:02:27;;;;;;;8.15;3.50;;;;;;;;;;6127073;28;20067;-60
2023/09/01 07:05:28;;;;;;;7.15;3.05;;;;;;;;;;6128334;29;20040;-60
2023/09/01 07:08:29;;;;;;;7.82;3.33;;;;;;;;;;6121924;29;20099;-60
2023/09/01 07:11:30;;;;;;;9.85;3.50;;;;;;;;;;6128591;29;20062;-60
2023/09/01 07:14:30;;;;;;;9.88;3.47;;;;;;;;;;6132043;29;20055;-60
2023/09/01 07:17:31;;;;;;;5.93;3.25;;;;;;;;;;6127994;29;20043;-60
2023/09/01 07:20:32;;;;;;;7.47;3.20;;;;;;;;;;6128416;29;20071;-60
2023/09/01 07:23:32;;;;;;;9.70;3.88;;;;;;;;;;6127458;29;20487;-60
2023/09/01 07:26:33;;;;;;;5.90;2.83;;;;;;;;;;6127222;29;20044;-61
2023/09/01 07:29:33;;;;;;;6.60;2.97;;;;;;;;;;6125886;29;20051;-60
2023/09/01 07:32:34;;;;;;;7.82;3.13;;;;;;;;;;6119670;29;20550;-60
2023/09/01 07:35:35;;;;;;;7.38;3.15;;;;;;;;;;6126104;29;20059;-60
2023/09/01 07:38:36;;;;;;;6.93;3.28;;;;;;;;;;6129148;29;20102;-60
2023/09/01 07:41:37;;;;;;;9.82;3.30;;;;;;;;;;6127427;29;20487;-59
2023/09/01 07:44:37;;;;;;;7.05;3.05;;;;;;;;;;6127932;29;20126;-59
2023/09/01 07:47:38;;;;;;;6.80;2.70;;;;;;;;;;6125993;29;20482;-59
2023/09/01 08:01:25;;;;;;;9.27;3.75;;;;;;;;;;6298470;27;20410;-58
2023/09/01 08:04:26;;;;;;;11.73;3.23;;;;;;;;;;6265667;28;20064;-60
2023/09/01 08:07:27;;;;;;;7.20;3.30;;;;;;;;;;6269193;28;20088;-56
2023/09/01 08:10:27;;;;;;;8.37;3.73;;;;;;;;;;6272830;28;20049;-59
2023/09/01 08:13:29;;;;;;;9.05;3.10;;;;;;;;;;6272995;28;20437;-60
2023/09/01 08:16:30;;;;;;;;;;;;;;;;;;6266419;28;20045;-61
2023/09/01 08:19:31;;;;;;;7.28;3.08;;;;;;;;;;6269616;28;19928;-60
2023/09/01 08:22:31;;;;;;;7.07;3.30;;;;;;;;;;6276937;28;20037;-60
2023/09/01 08:25:32;;;;;;;7.60;3.25;;;;;;;;;;6268883;28;20052;-60
2023/09/01 08:28:33;;;;;;;6.25;3.30;;;;;;;;;;6265790;28;20049;-59
2023/09/01 08:31:34;;;;;;;7.40;3.22;;;;;;;;;;6274707;28;20449;-60
2023/09/01 08:34:35;;;;;;;7.55;3.00;;;;;;;;;;6266257;28;20080;-60
2023/09/01 08:37:35;;;;;;;7.17;3.27;;;;;;;;;;6262396;28;20518;-58
2023/09/01 08:40:36;;;;;;;5.70;2.58;;;;;;;;;;6263733;28;20140;-60
2023/09/01 08:43:38;;;;;;;8.10;2.87;;;;;;;;;;6264396;28;20048;-60
2023/09/01 08:46:40;;;;;;;11.40;3.25;;;;;;;;;;6265105;28;20052;-58
2023/09/01 08:49:40;;;;;;;9.38;3.63;;;;;;;;;;6264015;28;20221;-60
2023/09/01 08:52:44;;;;;;;6.83;3.00;;;;;;;;;;6260798;28;20065;-59
2023/09/01 08:55:45;;;;;;;8.15;3.13;;;;;;;;;;6264317;28;20044;-59
2023/09/01 08:58:46;;;;;;;7.25;3.53;;;;;;;;;;6263540;28;20053;-59
2023/09/01 09:01:48;;;;;;;8.75;3.58;;;;;;;;;;6248698;28;20061;-58
2023/09/01 09:04:49;;;;;;;7.05;3.10;;;;;;;;;;6243864;28;20382;-60
2023/09/01 09:07:58;;;;;;;8.07;3.60;;;;;;;;;;6245626;28;20443;-59
2023/09/01 09:10:58;;;;;;;5.90;3.10;;;;;;;;;;6242311;28;20914;-60
2023/09/01 09:13:59;;;;;;;7.57;3.35;;;;;;;;;;6241628;28;20153;-60
2023/09/01 09:17:00;;;;;;;10.20;3.30;;;;;;;;;;6241824;28;20488;-57
2023/09/01 09:20:01;;;;;;;9.57;3.80;;;;;;;;;;6242158;28;20341;-59
2023/09/01 09:23:02;;;;;;;9.00;3.17;;;;;;;;;;6246274;28;20462;-60
2023/09/01 09:26:03;;;;;;;8.17;3.40;;;;;;;;;;6243776;28;20389;-60
2023/09/01 09:29:11;;;;;;;7.97;3.50;;;;;;;;;;6243216;28;20060;-59
2023/09/01 09:32:20;;;;;;;7.75;3.38;;;;;;;;;;6243171;28;20853;-60
2023/09/01 09:35:24;;;;;;;7.72;3.20;;;;;;;;;;6244210;28;20051;-59
2023/09/01 09:38:42;;;;;;;8.52;3.88;;;;;;;;;;6245947;28;20049;-59
2023/09/01 09:41:45;;;;;;;7.90;3.38;;;;;;;;;;6241710;28;20388;-59
2023/09/01 09:44:49;;;;;;;7.43;3.90;;;;;;;;;;6242132;28;20048;-60
2023/09/01 09:47:50;;;;;;;11.05;3.13;;;;;;;;;;6240987;28;20484;-60
2023/09/01 09:50:54;;;;;;;8.43;3.60;;;;;;;;;;6241401;28;20048;-58
2023/09/01 09:53:57;;;;;;;6.20;3.20;;;;;;;;;;6244987;28;20056;-59
2023/09/01 09:56:59;;;;;;;7.25;3.28;;;;;;;;;;6243775;28;20049;-58
2023/09/01 10:00:10;;;;;;;6.80;3.08;;;;;;;;;;6246930;28;20510;-59
2023/09/01 10:03:11;;;;;;;8.68;3.58;;;;;;;;;;6247233;28;20045;-59
2023/09/01 10:06:13;;;;;;;6.50;3.42;;;;;;;;;;6243731;28;20049;-60
2023/09/01 10:09:16;;;;;;;10.20;3.83;;;;;;;;;;6244526;28;20111;-60
2023/09/01 10:12:18;;;;;;;7.35;3.25;;;;;;;;;;6244210;28;20041;-60
2023/09/01 10:15:19;;;;;;;8.65;3.47;;;;;;;;;;6242900;28;20444;-59
2023/09/01 10:18:20;;;;;;;;;;;;;;;;;;6243139;28;20448;-59
2023/09/01 10:21:21;;;;;;;8.65;3.33;;;;;;;;;;6241216;28;19925;-60
2023/09/01 10:24:22;;;;;;;9.20;3.40;;;;;;;;;;6240517;28;20135;-59
2023/09/01 10:27:23;;;;;;;5.93;3.23;;;;;;;;;;6244836;28;20041;-59
2023/09/01 10:30:28;;;;;;;7.43;3.20;;;;;;;;;;6244437;28;20046;-59
2023/09/01 10:33:28;;;;;;;7.30;3.20;;;;;;;;;;6239845;28;20267;-58
2023/09/01 10:36:29;;;;;;;6.83;3.00;;;;;;;;;;6242310;28;20503;-60
2023/09/01 10:39:30;;;;;;;5.50;3.00;;;;;;;;;;6239771;28;20045;-60
2023/09/01 10:42:43;;;;;;;7.53;3.00;;;;;;;;;;6242634;28;20378;-60
2023/09/01 10:46:12;;;;;;;9.82;3.47;;;;;;;;;;6239868;28;20049;-60
2023/09/01 10:49:14;;;;;;;7.10;3.00;;;;;;;;;;6245067;28;20083;-59
2023/09/01 10:52:14;;;;;;;5.80;2.93;;;;;;;;;;6242867;28;20049;-60
2023/09/01 10:55:15;;;;;;;12.10;3.10;;;;;;;;;;6243196;28;20092;-59
2023/09/01 10:58:16;;;;;;;5.20;2.97;;;;;;;;;;6240454;28;20057;-59
2023/09/01 11:01:35;;;;;;;7.47;3.17;;;;;;;;;;6240522;28;20629;-60
2023/09/01 11:04:40;;;;;;;6.78;3.20;;;;;;;;;;6240837;28;20423;-59
2023/09/01 11:08:17;;;;;;;5.90;3.03;;;;;;;;;;6242001;28;20411;-60
2023/09/01 11:11:17;;;;;;;8.30;3.50;;;;;;;;;;6243466;28;20045;-58
2023/09/01 11:14:20;;;;;;;8.10;3.10;;;;;;;;;;6245961;28;20140;-59
2023/09/01 11:17:48;;;;;;;6.03;3.00;;;;;;;;;;6243822;28;20074;-60
2023/09/01 11:20:54;;;;;;;7.78;3.30;;;;;;;;;;6241154;28;20103;-59
2023/09/01 11:23:59;;;;;;;5.32;3.15;;;;;;;;;;6242090;28;20432;-60
2023/09/01 11:27:03;;;;;;;6.40;2.97;;;;;;;;;;6240094;28;20164;-59
2023/09/01 11:30:04;;;;;;;7.88;3.17;;;;;;;;;;6244272;28;20148;-60
2023/09/01 11:33:12;;;;;;;8.13;3.13;;;;;;;;;;6244568;28;20557;-60
2023/09/01 11:36:12;;;;;;;6.18;2.67;;;;;;;;;;6237974;28;20034;-60
2023/09/01 11:39:13;;;;;;;8.43;3.17;;;;;;;;;;6244461;28;20065;-58
2023/09/01 11:42:14;;;;;;;11.37;3.13;;;;;;;;;;6242790;28;20068;-59
2023/09/01 11:45:15;;;;;;;8.77;3.33;;;;;;;;;;6244450;28;20057;-60
2023/09/01 11:48:23;;;;;;;6.57;2.80;;;;;;;;;;6240800;28;20041;-60
2023/09/01 11:51:31;;;;;;;6.95;3.53;;;;;;;;;;6241986;28;20056;-60
2023/09/01 11:54:41;;;;;;;7.63;3.20;;;;;;;;;;6241414;28;20407;-59
2023/09/01 11:57:52;;;;;;;9.32;3.13;;;;;;;;;;6242680;28;20507;-61
2023/09/01 12:00:53;;;;;;;8.17;2.80;;;;;;;;;;6242546;28;20144;-60
2023/09/01 12:04:05;;;;;;;8.73;3.03;;;;;;;;;;6239843;28;20787;-60
2023/09/01 12:07:06;;;;;;;7.93;3.40;;;;;;;;;;6243144;28;20061;-59
2023/09/01 12:10:21;;;;;;;8.00;3.13;;;;;;;;;;6245706;28;20144;-59
2023/09/01 12:13:23;;;;;;;8.27;3.33;;;;;;;;;;6241576;28;20159;-60
2023/09/01 12:16:24;;;;;;;6.93;3.33;;;;;;;;;;6243868;28;20037;-59
2023/09/01 12:19:26;;;;;;;7.80;3.10;;;;;;;;;;6242808;28;20068;-60
2023/09/01 12:22:27;;;;;;;9.43;3.80;;;;;;;;;;6245528;28;20049;-60
2023/09/01 12:25:28;;;;;;;8.00;3.50;;;;;;;;;;6244976;28;20048;-60
2023/09/01 12:28:31;;;;;;;8.50;3.37;;;;;;;;;;6243698;28;20555;-60
2023/09/01 12:31:31;;;;;;;7.25;4.00;;;;;;;;;;6245078;28;20045;-59
2023/09/01 12:34:32;;;;;;;6.90;3.20;;;;;;;;;;6245511;28;20052;-60
2023/09/01 12:37:32;;;;;;;6.53;3.60;;;;;;;;;;6250439;28;20052;-60
2023/09/01 12:40:34;;;;;;;8.53;3.53;;;;;;;;;;6251131;28;20068;-60
2023/09/01 12:43:34;;;;;;;6.22;3.17;;;;;;;;;;6247813;28;20041;-60
2023/09/01 12:46:35;;;;;;;7.37;3.97;;;;;;;;;;6252353;28;22654;-60
2023/09/01 12:49:36;;;;;;;5.87;3.10;;;;;;;;;;6251282;28;20488;-60
2023/09/01 12:52:37;;;;;;;6.63;3.22;;;;;;;;;;6249724;28;20556;-60
2023/09/01 12:55:37;;;;;;;6.50;3.00;;;;;;;;;;6249611;28;20056;-60
2023/09/01 12:58:39;;;;;;;8.17;2.90;;;;;;;;;;6246697;28;20053;-60
2023/09/01 13:01:39;;;;;;;9.43;3.20;;;;;;;;;;6250951;28;20680;-60
2023/09/01 13:04:42;;;;;;;6.73;3.17;;;;;;;;;;6247958;28;20191;-60
2023/09/01 13:07:45;;;;;;;6.63;2.90;;;;;;;;;;6248036;28;20387;-59
2023/09/01 13:10:45;;;;;;;9.07;3.50;;;;;;;;;;6247722;28;20090;-60
2023/09/01 13:13:46;;;;;;;10.07;3.00;;;;;;;;;;6249260;28;20446;-60
2023/09/01 13:16:47;;;;;;;6.47;3.23;;;;;;;;;;6249534;28;21142;-60
2023/09/01 13:19:47;;;;;;;6.37;2.83;;;;;;;;;;6252143;28;20044;-59
2023/09/01 13:22:49;;;;;;;6.47;3.10;;;;;;;;;;6250368;28;20052;-60
2023/09/01 13:25:50;;;;;;;7.00;3.03;;;;;;;;;;6250097;28;20056;-60
2023/09/01 13:28:50;;;;;;;6.30;3.30;;;;;;;;;;6252055;28;20037;-60
2023/09/01 13:31:51;;;;;;;9.47;3.63;;;;;;;;;;6249756;28;20040;-60
2023/09/01 13:34:52;;;;;;;8.60;3.27;;;;;;;;;;6249602;28;20242;-60
2023/09/01 13:37:52;;;;;;;8.03;3.23;;;;;;;;;;6248606;28;20560;-60
2023/09/01 13:40:54;;;;;;;9.67;3.70;;;;;;;;;;6249538;28;20629;-59
2023/09/01 13:43:55;;;;;;;9.65;4.07;;;;;;;;;;6250904;28;20029;-59
2023/09/01 13:46:56;;;;;;;6.43;3.33;;;;;;;;;;6247046;28;20068;-59
2023/09/01 13:49:56;;;;;;;8.33;3.60;;;;;;;;;;6250781;28;20507;-59
2023/09/01 13:52:57;;;;;;;5.27;3.30;;;;;;;;;;6248720;28;20081;-58
2023/09/01 13:55:58;;;;;;;5.77;3.67;;;;;;;;;;6244983;28;20049;-59
2023/09/01 13:58:59;;;;;;;8.40;3.63;;;;;;;;;;6250407;28;20076;-59
2023/09/01 14:01:59;;;;;;;8.23;3.83;;;;;;;;;;6250610;28;20508;-59
2023/09/01 14:05:00;;;;;;;7.43;3.97;;;;;;;;;;6248743;28;20102;-59
2023/09/01 14:08:01;;;;;;;10.27;3.40;;;;;;;;;;6247740;28;20052;-58
2023/09/01 14:11:02;;;;;;;9.00;3.73;;;;;;;;;;6248493;28;20063;-58
2023/09/01 14:14:03;;;;;;;6.83;3.03;;;;;;;;;;6250385;28;20072;-59
2023/09/01 14:17:04;;;;;;;8.48;3.50;;;;;;;;;;6246399;28;20053;-59
2023/09/01 14:20:05;;;;;;;7.97;3.47;;;;;;;;;;6248566;28;20044;-59
2023/09/01 14:23:06;;;;;;;8.40;3.42;;;;;;;;;;6250584;28;20052;-58
2023/09/01 14:26:08;;;;;;;6.43;3.40;;;;;;;;;;6246384;28;20053;-58
2023/09/01 14:29:09;;;;;;;9.30;3.67;;;;;;;;;;6248651;28;20649;-59
2023/09/01 14:32:09;;;;;;;8.33;3.80;;;;;;;;;;6263888;28;20347;-59
2023/09/01 14:35:10;;;;;;;6.27;3.23;;;;;;;;;;6246199;28;20119;-60
2023/09/01 14:38:10;;;;;;;7.23;3.53;;;;;;;;;;6245674;28;20045;-59
2023/09/01 14:41:18;;;;;;;6.97;3.37;;;;;;;;;;6248970;28;20151;-59
2023/09/01 14:44:19;;;;;;;7.72;3.50;;;;;;;;;;6245417;28;20284;-59
2023/09/01 14:47:19;;;;;;;7.35;3.42;;;;;;;;;;6248055;28;20053;-59
2023/09/01 14:50:24;;;;;;;9.80;3.63;;;;;;;;;;6254598;28;20431;-59
2023/09/01 14:53:24;;;;;;;7.75;3.83;;;;;;;;;;6256794;28;20114;-59
2023/09/01 14:56:25;;;;;;;6.40;3.60;;;;;;;;;;6254050;28;20045;-59
2023/09/01 14:59:26;;;;;;;7.63;3.43;;;;;;;;;;6253954;28;20050;-59
2023/09/01 15:02:26;;;;;;;6.07;3.20;;;;;;;;;;6252511;28;20052;-59
2023/09/01 15:05:27;;;;;;;8.70;3.63;;;;;;;;;;6250747;28;20068;-59
2023/09/01 15:08:27;;;;;;;7.80;3.53;;;;;;;;;;6253982;28;20810;-59
2023/09/01 15:11:28;;;;;;;7.77;3.87;;;;;;;;;;6256076;28;20052;-59
2023/09/01 15:14:28;;;;;;;7.40;3.57;;;;;;;;;;6254176;28;20084;-59
2023/09/01 15:17:29;;;;;;;8.00;3.83;;;;;;;;;;6251832;28;20054;-59
2023/09/01 15:20:30;;;;;;;6.00;3.23;;;;;;;;;;6256401;28;20439;-59
2023/09/01 15:23:31;;;;;;;7.53;3.33;;;;;;;;;;6254434;28;20415;-59
2023/09/01 15:26:32;;;;;;;7.70;3.20;;;;;;;;;;6245977;28;20048;-59
2023/09/01 15:29:34;;;;;;;5.95;3.40;;;;;;;;;;6243813;28;20423;-60
2023/09/01 15:32:34;;;;;;;6.97;3.20;;;;;;;;;;6244170;28;20622;-59
2023/09/01 15:35:35;;;;;;;7.97;3.43;;;;;;;;;;6241074;28;20270;-60
2023/09/01 15:38:35;;;;;;;5.80;3.53;;;;;;;;;;6242421;28;20419;-58
2023/09/01 15:41:36;;;;;;;6.57;3.20;;;;;;;;;;6242097;28;20451;-59
2023/09/01 15:44:36;;;;;;;5.77;3.17;;;;;;;;;;6243238;28;20044;-59
2023/09/01 15:47:37;;;;;;;5.80;2.97;;;;;;;;;;6244533;28;20055;-59
2023/09/01 15:50:38;;;;;;;15.63;4.23;;;;;;;;;;6246859;28;20360;-60
2023/09/01 15:53:38;;;;;;;10.37;3.47;;;;;;;;;;6245237;28;20122;-59
2023/09/01 15:56:39;;;;;;;7.97;3.73;;;;;;;;;;6241055;28;20407;-60
2023/09/01 15:59:40;;;;;;;7.13;3.50;;;;;;;;;;6246672;28;20536;-59
2023/09/01 16:02:40;;;;;;;7.43;3.60;;;;;;;;;;6248858;28;20057;-59
2023/09/01 16:05:41;;;;;;;8.80;3.67;;;;;;;;;;6245061;28;20634;-60
2023/09/01 16:08:41;;;;;;;7.90;3.30;;;;;;;;;;6244580;28;20083;-59
2023/09/01 16:11:42;;;;;;;6.60;3.43;;;;;;;;;;6248119;28;20854;-59
2023/09/01 16:14:42;;;;;;;10.13;3.80;;;;;;;;;;6246312;28;20060;-60
2023/09/01 16:17:43;;;;;;;7.97;3.70;;;;;;;;;;6246535;28;20080;-59
2023/09/01 16:20:44;;;;;;;9.50;3.93;;;;;;;;;;6250000;28;20580;-60
2023/09/01 16:23:44;;;;;;;6.17;3.57;;;;;;;;;;6251874;28;20092;-59
2023/09/01 16:26:45;;;;;;;8.40;3.90;;;;;;;;;;6250946;28;20049;-60
2023/09/01 16:29:46;;;;;;;7.53;3.63;;;;;;;;;;6252473;28;20056;-60
2023/09/01 16:32:46;;;;;;;12.17;4.13;;;;;;;;;;6250154;28;20099;-59
2023/09/01 16:35:55;;;;;;;8.43;3.60;;;;;;;;;;6247318;28;20056;-59
2023/09/01 16:38:55;;;;;;;5.97;3.45;;;;;;;;;;6252881;28;20059;-58
2023/09/01 16:41:58;;;;;;;7.77;3.90;;;;;;;;;;6248417;28;20042;-59
2023/09/01 16:44:58;;;;;;;8.57;3.83;;;;;;;;;;6248170;28;20419;-60
2023/09/01 16:48:01;;;;;;;6.77;3.40;;;;;;;;;;6253209;28;20144;-59
2023/09/01 16:51:02;;;;;;;11.65;4.05;;;;;;;;;;6255623;28;20503;-59
2023/09/01 16:54:03;;;;;;;8.57;3.70;;;;;;;;;;6254538;28;20147;-59
2023/09/01 16:57:04;;;;;;;7.57;3.73;;;;;;;;;;6254846;28;20049;-59
2023/09/01 17:00:06;;;;;;;7.88;4.05;;;;;;;;;;6255392;28;20500;-56
2023/09/01 17:03:07;;;;;;;6.18;3.53;;;;;;;;;;6256956;28;20049;-59
2023/09/01 17:06:08;;;;;;;7.33;3.53;;;;;;;;;;6254285;28;20074;-59
2023/09/01 17:09:08;;;;;;;8.80;3.53;;;;;;;;;;6249694;28;20041;-59
2023/09/01 17:12:09;;;;;;;8.90;3.80;;;;;;;;;;6255503;28;20160;-59
2023/09/01 17:15:11;;;;;;;8.00;3.80;;;;;;;;;;6252465;28;20052;-65
2023/09/01 17:18:11;;;;;;;7.30;3.40;;;;;;;;;;6253258;28;20049;-59
2023/09/01 17:21:12;;;;;;;6.23;3.70;;;;;;;;;;6257475;28;20052;-60
2023/09/01 17:24:13;;;;;;;7.87;3.63;;;;;;;;;;6256184;28;20057;-60
2023/09/01 17:27:13;;;;;;;7.90;4.20;;;;;;;;;;6253971;28;20052;-56
2023/09/01 17:30:15;;;;;;;7.73;4.03;;;;;;;;;;6257016;28;20605;-59
2023/09/01 17:33:15;;;;;;;9.30;3.70;;;;;;;;;;6258000;28;20053;-57
2023/09/01 17:36:16;;;;;;;7.87;3.90;;;;;;;;;;6255232;28;20351;-59
2023/09/01 17:39:17;;;;;;;9.00;4.00;;;;;;;;;;6257438;28;20475;-60
2023/09/01 17:42:17;;;;;;;9.07;4.20;;;;;;;;;;6258308;28;20143;-57
2023/09/01 17:45:18;;;;;;;8.00;4.13;;;;;;;;;;6256150;28;20052;-59
2023/09/01 17:48:18;;;;;;;9.73;3.70;;;;;;;;;;6253984;28;20164;-59
2023/09/01 17:51:19;;;;;;;6.87;3.77;;;;;;;;;;6255129;28;20405;-55
2023/09/01 17:54:20;;;;;;;8.23;3.83;;;;;;;;;;6255161;28;20655;-54
2023/09/01 17:57:22;;;;;;;8.20;4.07;;;;;;;;;;6254717;28;20045;-58
2023/09/01 18:00:23;;;;;;;7.57;4.07;;;;;;;;;;6257555;28;20079;-59
2023/09/01 18:03:23;;;;;;;7.20;3.87;;;;;;;;;;6256236;28;20048;-58
2023/09/01 18:06:26;;;;;;;7.63;4.67;;;;;;;;;;6254106;28;20131;-59
2023/09/01 18:09:28;;;;;;;8.75;4.00;;;;;;;;;;6256534;28;20041;-56
2023/09/01 18:12:29;;;;;;;7.70;3.85;;;;;;;;;;6257475;28;20045;-57
2023/09/01 18:15:29;;;;;;;9.50;4.00;;;;;;;;;;6256131;28;20055;-58
2023/09/01 18:18:33;;;;;;;6.93;3.80;;;;;;;;;;6251998;28;20523;-58